KABQ/ABQ METAR and TAF weather

Enter ICAO airport designator
Station Type Date Time Source
KABQ METAR 2021/06/24 06:52 UTC NOAA

KABQ 240652Z 36016G23KT 9SM FEW030 FEW080 BKN130 OVC220 23/09 A3019 RMK AO2 PK WND 33029/0557 SLP124 MTNS OBSC NE-SE BLDU ALQDS HZ ALQDS T02280089 403610217


Station Type Date Time Source
KABQ Decoded METAR 2021/06/24 06:52 UTC NOAA

ALBUQUERQUE INTERNATIONAL AIRPORT, NM, United States (KABQ) 35-02N 106-36W 1618M
Jun 24, 2021 - 02:52 AM EDT / 2021.06.24 0652 UTC
Wind: from the N (360 degrees) at 18 MPH (16 KT) gusting to 26 MPH (23 KT):0
Visibility: 9 mile(s):0
Sky conditions: overcast
Temperature: 73.0 F (22.8 C)
Dew Point: 48.0 F (8.9 C)
Relative Humidity: 41%
Pressure (altimeter): 30.19 in. Hg (1022 hPa)
ob: KABQ 240652Z 36016G23KT 9SM FEW030 FEW080 BKN130 OVC220 23/09 A3019 RMK AO2 PK WND 33029/0557 SLP124 MTNS OBSC NE-SE BLDU ALQDS HZ ALQDS T02280089 403610217
cycle: 7

Station Type Date Time Source
KABQ TAF 2021/06/24 06:34 UTC NOAA

TAF KABQ 240532Z 2406/2506 36011KT P6SM BKN100
FM241000 VRB06KT P6SM BKN110
FM241700 23010KT P6SM SCT110
FM242200 25015G25KT P6SM VCTS BKN100CB
FM250100 35011KT P6SM BKN110

Example: see airport list